createdAt,value
2023-03-16T00:07:17.814Z,216.77
2023-03-16T00:17:23.280Z,215.30
2023-03-16T00:27:27.958Z,206.93
2023-03-16T00:37:33.984Z,196.17
2023-03-16T00:47:37.515Z,201.67
2023-03-16T00:57:42.392Z,204.53
2023-03-16T01:07:45.852Z,200.17
2023-03-16T01:17:51.866Z,205.77
2023-03-16T01:27:55.291Z,208.43
2023-03-16T01:38:00.155Z,205.27
2023-03-16T01:48:04.393Z,219.43
2023-03-16T01:58:09.872Z,219.77
2023-03-16T02:08:14.396Z,214.03
2023-03-16T02:18:23.095Z,221.83
2023-03-16T02:28:35.193Z,220.80
2023-03-16T02:38:40.289Z,211.80
2023-03-16T02:48:49.360Z,225.93
2023-03-16T02:58:54.836Z,225.30
2023-03-16T03:08:58.546Z,242.47
2023-03-16T03:19:03.970Z,224.80
2023-03-16T03:29:12.627Z,224.93
2023-03-16T03:39:18.702Z,224.40
2023-03-16T03:49:25.399Z,223.70
2023-03-16T03:59:30.512Z,240.33
2023-03-16T04:09:52.715Z,224.10
2023-03-16T04:20:12.986Z,227.23
2023-03-16T04:30:17.675Z,225.47
2023-03-16T04:40:27.442Z,225.07
2023-03-16T04:50:40.996Z,223.40
2023-03-16T05:00:46.471Z,231.53
2023-03-16T05:10:58.718Z,215.57
2023-03-16T05:21:07.843Z,228.37
2023-03-16T05:31:27.888Z,223.63
2023-03-16T05:41:37.471Z,221.77
2023-03-16T05:52:04.424Z,227.50
2023-03-16T06:02:12.566Z,231.20
2023-03-16T06:12:17.377Z,229.07
2023-03-16T06:22:24.031Z,233.87
2023-03-16T06:32:27.726Z,248.13
2023-03-16T06:42:33.708Z,247.70
2023-03-16T06:52:37.942Z,242.47
2023-03-16T07:02:43.855Z,238.03
2023-03-16T07:12:50.403Z,235.13
2023-03-16T07:22:55.455Z,245.80
2023-03-16T07:32:59.668Z,238.50
2023-03-16T07:43:05.300Z,236.40
2023-03-16T07:53:17.557Z,238.13
2023-03-16T08:03:28.780Z,243.70
2023-03-16T08:13:32.861Z,238.00
2023-03-16T08:23:38.246Z,238.57
2023-03-16T08:33:47.890Z,243.03
2023-03-16T08:43:56.691Z,243.80
2023-03-16T08:54:00.758Z,234.90
2023-03-16T09:04:05.722Z,247.67
2023-03-16T09:14:09.220Z,239.47
2023-03-16T09:24:14.397Z,235.00
2023-03-16T09:34:18.083Z,242.33
2023-03-16T09:44:36.582Z,240.33
2023-03-16T09:54:47.553Z,229.43
2023-03-16T10:05:06.564Z,233.30
2023-03-16T10:15:13.898Z,227.17
2023-03-16T10:25:25.250Z,224.90
2023-03-16T10:35:42.803Z,244.23
2023-03-16T10:45:48.434Z,229.37
2023-03-16T10:55:58.814Z,244.53
2023-03-16T11:06:07.598Z,234.53
2023-03-16T11:16:26.066Z,223.13
2023-03-16T11:26:35.584Z,232.10
2023-03-16T11:36:50.258Z,240.07
2023-03-16T11:47:02.542Z,228.43
2023-03-16T11:57:19.945Z,226.20
2023-03-16T12:07:42.987Z,233.27
2023-03-16T12:17:48.111Z,232.23
2023-03-16T12:27:56.297Z,229.20
2023-03-16T12:38:20.647Z,231.40
2023-03-16T12:48:32.017Z,224.13
2023-03-16T12:58:35.770Z,229.30
2023-03-16T13:08:49.412Z,219.82
2023-03-16T13:18:53.310Z,229.15
2023-03-16T13:28:58.662Z,226.02
2023-03-16T13:39:08.446Z,227.23
2023-03-16T13:49:15.004Z,232.40
2023-03-16T13:59:19.049Z,235.67
2023-03-16T14:09:28.740Z,228.00
2023-03-16T14:19:42.341Z,234.23
2023-03-16T14:29:54.408Z,232.67
2023-03-16T14:40:07.244Z,223.20
2023-03-16T14:50:18.810Z,233.70
2023-03-16T15:00:24.049Z,218.50
2023-03-16T15:10:31.977Z,236.57
2023-03-16T15:20:41.452Z,225.87
2023-03-16T15:30:48.995Z,226.13
2023-03-16T15:40:53.525Z,214.53
2023-03-16T15:51:02.230Z,218.90
2023-03-16T16:01:08.997Z,226.23
2023-03-16T16:11:17.951Z,212.47
2023-03-16T16:21:24.840Z,214.03
2023-03-16T16:31:31.684Z,221.57
2023-03-16T16:41:36.881Z,221.90
2023-03-16T16:51:42.771Z,213.07
2023-03-16T17:01:47.683Z,230.53
2023-03-16T17:11:54.148Z,215.73
2023-03-16T17:21:59.379Z,206.30
2023-03-16T17:32:11.502Z,208.17
2023-03-16T17:42:17.982Z,203.83
2023-03-16T17:52:25.835Z,205.67
2023-03-16T18:02:41.633Z,204.27
2023-03-16T18:12:47.216Z,191.27
2023-03-16T18:22:51.049Z,191.03
2023-03-16T18:32:59.282Z,195.00
2023-03-16T18:43:02.799Z,192.20
2023-03-16T18:53:10.314Z,195.87
2023-03-16T19:03:24.576Z,190.20
2023-03-16T19:13:29.886Z,191.70
2023-03-16T19:23:37.709Z,181.10
2023-03-16T19:33:42.645Z,199.30
2023-03-16T19:43:46.442Z,198.47
2023-03-16T19:53:53.779Z,209.80
2023-03-16T20:03:57.806Z,209.23
2023-03-16T20:14:03.705Z,211.27
2023-03-16T20:24:16.479Z,211.60
2023-03-16T20:34:24.672Z,209.23
2023-03-16T20:44:30.347Z,204.13
2023-03-16T20:54:35.952Z,197.27
2023-03-16T21:04:42.720Z,203.90
2023-03-16T21:14:48.965Z,201.57
2023-03-16T21:24:52.648Z,196.73
2023-03-16T21:34:59.454Z,200.60
2023-03-16T21:45:03.889Z,190.90
2023-03-16T21:55:23.735Z,204.30
2023-03-16T22:05:36.495Z,203.27
2023-03-16T22:15:43.603Z,220.87
2023-03-16T22:25:47.061Z,223.90
2023-03-16T22:35:53.483Z,211.30
2023-03-16T22:45:57.328Z,222.03
2023-03-16T22:56:02.575Z,213.27
2023-03-16T23:06:09.079Z,226.77
2023-03-16T23:16:22.168Z,221.27
2023-03-16T23:26:27.839Z,216.37
2023-03-16T23:36:33.580Z,227.33
2023-03-16T23:46:37.229Z,231.03
2023-03-16T23:56:42.137Z,216.30
